Time;durP1;ratioP1;P1;durP2;ratioP2;P2;SDS_P1;SDS_P2;PMS_P1;PMS_P2;Temp;Humidity;BMP_temperature;BMP_pressure;BME280_temperature;BME280_humidity;BME280_pressure;Samples;Min_cycle;Max_cycle;Signal;HPM_P1;HPM_P2
2022/06/26 00:01:53;;;;;;;;;3.00;1.33;;;;;32.92;27.62;100854.06;4901858;28;45466;-78
2022/06/26 00:04:18;;;;;;;;;2.00;2.00;;;;;32.95;27.47;100860.25;4901564;28;45407;-76
2022/06/26 00:06:44;;;;;;;;;4.00;3.00;;;;;32.90;27.15;100843.19;4901732;28;45407;-78
2022/06/26 00:09:09;;;;;;;;;1.00;1.00;;;;;32.88;27.18;100850.66;4915996;28;46957;-78
2022/06/26 00:11:35;;;;;;;;;2.00;1.67;;;;;32.96;27.52;100866.59;4901609;28;45482;-78
2022/06/26 00:14:00;;;;;;;;;3.00;2.00;;;;;32.85;27.25;100866.50;4901291;28;45349;-78
2022/06/26 00:16:25;;;;;;;;;1.00;1.00;;;;;32.77;27.33;100847.81;4901341;28;45521;-77
2022/06/26 00:18:51;;;;;;;;;2.67;1.67;;;;;32.52;27.37;100832.22;4901379;28;46529;-78
2022/06/26 00:21:16;;;;;;;;;1.33;1.33;;;;;32.66;27.60;100856.84;4901214;29;45364;-78
2022/06/26 00:23:42;;;;;;;;;3.00;2.00;;;;;32.80;27.27;100867.72;4901532;28;45527;-78
2022/06/26 00:26:07;;;;;;;;;0.67;0.67;;;;;32.75;27.59;100867.19;4901479;28;45292;-78
2022/06/26 00:28:33;;;;;;;;;1.33;1.00;;;;;32.64;27.52;100859.69;4900808;28;46434;-78
2022/06/26 00:30:58;;;;;;;;;2.00;1.00;;;;;32.76;27.28;100837.84;4901359;28;45268;-78
2022/06/26 00:33:23;;;;;;;;;3.00;1.67;;;;;32.91;27.06;100846.81;4901074;28;45971;-78
2022/06/26 00:35:49;;;;;;;;;1.33;1.33;;;;;32.98;27.24;100849.00;4900960;28;45492;-79
2022/06/26 00:38:15;;;;;;;;;2.00;2.00;;;;;32.92;27.33;100832.09;4915733;28;47238;-78
2022/06/26 00:40:42;;;;;;;;;2.33;1.00;;;;;32.84;26.80;100827.16;4900972;28;45523;-78
2022/06/26 00:43:08;;;;;;;;;1.67;1.67;;;;;32.80;27.42;100848.50;4915507;28;45541;-78
2022/06/26 00:45:33;;;;;;;;;1.00;1.00;;;;;32.72;27.28;100845.44;4901014;28;45428;-78
2022/06/26 00:47:59;;;;;;;;;4.00;1.67;;;;;32.67;27.06;100845.75;4900843;28;45438;-78
2022/06/26 00:50:24;;;;;;;;;1.67;1.67;;;;;32.70;27.45;100846.53;4915410;28;45815;-78
2022/06/26 00:52:51;;;;;;;;;2.00;2.00;;;;;32.61;27.54;100859.03;4900951;28;45414;-78
2022/06/26 00:55:17;;;;;;;;;3.00;1.33;;;;;32.54;27.20;100846.75;4899501;28;45360;-78
2022/06/26 00:57:42;;;;;;;;;1.50;1.50;;;;;32.54;26.93;100863.22;4900191;28;45993;-79
2022/06/26 01:00:11;;;;;;;;;1.67;1.67;;;;;32.41;27.45;100877.81;4900872;29;45343;-78
2022/06/26 01:02:37;;;;;;;;;2.00;2.00;;;;;32.34;27.15;100870.16;4900803;28;45478;-78
2022/06/26 01:05:03;;;;;;;;;2.00;2.00;;;;;32.34;27.03;100854.53;4900670;28;45494;-78
2022/06/26 01:07:28;;;;;;;;;1.00;1.00;;;;;32.64;27.39;100873.44;4900300;28;46628;-78
2022/06/26 01:09:54;;;;;;;;;4.00;2.67;;;;;32.47;27.49;100876.50;4900571;28;45490;-78
2022/06/26 01:12:19;;;;;;;;;2.00;2.00;;;;;32.53;27.43;100870.56;4914947;28;45414;-79
2022/06/26 01:14:46;;;;;;;;;3.00;1.67;;;;;32.44;27.36;100855.63;4900632;28;45614;-79
2022/06/26 01:17:11;;;;;;;;;2.00;1.00;;;;;32.43;27.48;100862.13;4900397;28;46255;-78
2022/06/26 01:19:37;;;;;;;;;2.00;2.00;;;;;32.45;27.55;100862.88;4900380;28;45256;-78
2022/06/26 01:22:03;;;;;;;;;0.67;0.67;;;;;32.30;27.43;100866.72;4900654;28;45392;-78
2022/06/26 01:24:28;;;;;;;;;1.33;1.00;;;;;32.29;27.92;100887.81;4914637;28;45435;-78
2022/06/26 01:26:54;;;;;;;;;0.00;0.00;;;;;32.36;27.03;100879.13;4900403;29;45467;-79
2022/06/26 01:29:19;;;;;;;;;6.33;2.33;;;;;32.27;27.37;100872.44;4900249;28;45277;-78
2022/06/26 01:31:44;;;;;;;;;1.00;1.00;;;;;32.14;27.41;100865.06;4900372;28;45455;-79
2022/06/26 01:34:11;;;;;;;;;1.67;1.00;;;;;32.06;27.60;100856.44;4900199;28;45465;-79
2022/06/26 01:36:37;;;;;;;;;1.67;1.67;;;;;32.20;27.54;100880.22;4899996;28;46654;-78
2022/06/26 01:39:03;;;;;;;;;2.67;1.00;;;;;32.01;27.46;100872.38;4899820;29;45451;-79
2022/06/26 01:41:29;;;;;;;;;1.00;1.00;;;;;32.14;27.43;100888.91;4900295;29;45513;-79
2022/06/26 01:43:54;;;;;;;;;2.33;1.67;;;;;31.95;27.64;100875.53;4900200;28;45390;-78
2022/06/26 01:46:22;;;;;;;;;1.00;1.00;;;;;32.18;27.87;100897.78;4899854;28;46741;-78
2022/06/26 01:48:48;;;;;;;;;2.00;2.00;;;;;32.03;27.56;100897.84;4899388;28;45437;-78
2022/06/26 01:51:13;;;;;;;;;2.00;2.00;;;;;32.12;27.39;100893.56;4900280;28;45343;-78
2022/06/26 01:53:39;;;;;;;;;2.00;2.00;;;;;32.20;27.34;100904.94;4899616;28;45443;-78
2022/06/26 01:56:05;;;;;;;;;1.00;1.00;;;;;32.14;27.24;100899.88;4898443;29;47110;-78
2022/06/26 01:58:32;;;;;;;;;1.33;1.33;;;;;32.09;27.48;100885.56;4914197;28;45415;-79
2022/06/26 02:00:58;;;;;;;;;0.67;0.67;;;;;31.99;27.57;100888.06;4900114;28;45501;-79
2022/06/26 02:03:24;;;;;;;;;1.67;1.67;;;;;32.04;27.42;100888.63;4899659;28;45437;-78
2022/06/26 02:05:50;;;;;;;;;1.67;1.67;;;;;31.78;27.70;100882.19;4899896;28;46548;-77
2022/06/26 02:08:16;;;;;;;;;1.00;1.00;;;;;31.83;27.57;100892.84;4899477;29;45518;-78
2022/06/26 02:13:42;;;;;;;;;1.67;1.67;;;;;32.04;27.34;100896.84;4899627;29;45495;-78
2022/06/26 02:16:21;;;;;;;;;1.00;1.00;;;;;31.88;27.01;100858.59;4899530;28;45610;-78
2022/06/26 02:18:49;;;;;;;;;1.67;1.67;;;;;31.95;27.57;100875.53;4899618;28;45263;-78
2022/06/26 02:21:17;;;;;;;;;3.00;2.00;;;;;31.92;27.20;100883.97;4899740;28;45522;-78
2022/06/26 02:23:44;;;;;;;;;2.00;2.00;;;;;31.91;27.82;100888.59;4899205;28;45389;-78
2022/06/26 02:26:10;;;;;;;;;3.00;2.00;;;;;31.81;27.48;100880.13;4899535;28;45643;-78
2022/06/26 02:28:36;;;;;;;;;3.67;2.00;;;;;31.94;27.59;100901.22;4899214;28;45557;-78
2022/06/26 02:31:02;;;;;;;;;1.67;1.33;;;;;31.91;27.71;100906.91;4899660;28;45399;-79
2022/06/26 02:33:29;;;;;;;;;2.00;2.00;;;;;31.72;27.26;100888.09;4899235;28;45323;-79
2022/06/26 02:35:55;;;;;;;;;1.67;1.67;;;;;31.86;27.44;100899.00;4899140;28;45381;-79
2022/06/26 02:38:22;;;;;;;;;2.00;2.00;;;;;32.02;27.55;100887.84;4899028;28;45321;-79
2022/06/26 02:40:48;;;;;;;;;2.33;2.33;;;;;32.05;27.02;100882.13;4899665;28;45434;-79
2022/06/26 02:43:13;;;;;;;;;3.67;2.33;;;;;32.05;27.22;100879.38;4899297;28;45389;-78
2022/06/26 02:45:39;;;;;;;;;3.33;2.00;;;;;31.95;27.70;100892.00;4899040;28;46236;-78
2022/06/26 02:48:05;;;;;;;;;1.67;1.67;;;;;31.86;27.36;100876.19;4899311;28;45341;-79
2022/06/26 02:50:30;;;;;;;;;2.00;2.00;;;;;31.78;27.43;100880.31;4899191;28;45335;-79
2022/06/26 02:52:56;;;;;;;;;1.33;1.33;;;;;31.81;27.74;100884.72;4898888;28;45446;-78
2022/06/26 02:55:21;;;;;;;;;2.00;1.33;;;;;31.94;27.55;100885.63;4898987;28;46211;-78
2022/06/26 02:57:46;;;;;;;;;2.33;2.33;;;;;31.94;27.28;100885.63;4898858;28;45398;-79
2022/06/26 03:00:14;;;;;;;;;2.00;1.67;;;;;31.82;27.83;100886.47;4899233;28;45396;-79
2022/06/26 03:02:40;;;;;;;;;2.00;2.00;;;;;31.70;28.04;100882.72;4899193;28;45445;-79
2022/06/26 03:05:06;;;;;;;;;2.00;2.00;;;;;31.71;28.05;100870.75;4899017;28;45491;-79
2022/06/26 03:07:31;;;;;;;;;2.33;2.33;;;;;31.93;27.82;100888.50;4898622;28;45335;-79
2022/06/26 03:09:57;;;;;;;;;4.00;2.00;;;;;31.92;27.71;100887.59;4899049;28;45410;-79
2022/06/26 03:12:22;;;;;;;;;2.00;2.00;;;;;31.81;27.45;100895.69;4898947;28;45561;-78
2022/06/26 03:14:48;;;;;;;;;2.00;2.00;;;;;31.73;27.59;100888.00;4898865;28;46189;-79
2022/06/26 03:17:15;;;;;;;;;3.00;2.00;;;;;31.82;27.31;100897.44;4913667;28;45522;-79
2022/06/26 03:19:40;;;;;;;;;1.67;1.67;;;;;31.80;27.92;100894.81;4913379;28;45458;-78
2022/06/26 03:22:06;;;;;;;;;2.67;2.67;;;;;31.73;27.37;100887.09;4913233;28;45743;-79
2022/06/26 03:24:32;;;;;;;;;4.00;3.00;;;;;31.72;27.80;100897.19;4898698;28;46227;-78
2022/06/26 03:26:57;;;;;;;;;2.00;2.00;;;;;31.69;27.90;100897.41;4898983;28;45563;-79
2022/06/26 03:29:22;;;;;;;;;2.33;2.33;;;;;31.75;27.98;100893.38;4898911;29;45309;-79
2022/06/26 03:31:47;;;;;;;;;3.67;2.67;;;;;31.87;27.16;100899.88;4898736;28;45332;-79
2022/06/26 03:34:13;;;;;;;;;2.33;2.33;;;;;31.98;27.57;100909.16;4913228;28;46945;-78
2022/06/26 03:36:38;;;;;;;;;1.67;1.67;;;;;32.09;27.00;100910.25;4898139;29;45514;-79
2022/06/26 03:39:04;;;;;;;;;3.00;3.00;;;;;32.14;27.43;100897.13;4898870;28;45574;-78
2022/06/26 03:41:29;;;;;;;;;2.00;2.00;;;;;32.16;26.83;100914.34;4898627;28;45485;-79
2022/06/26 03:43:55;;;;;;;;;2.00;2.00;;;;;32.15;27.42;100921.72;4898508;28;45304;-79
2022/06/26 03:46:20;;;;;;;;;3.00;3.00;;;;;32.04;27.18;100913.31;4898656;28;45316;-79
2022/06/26 03:48:45;;;;;;;;;2.33;2.00;;;;;32.06;27.94;100915.97;4898784;29;45403;-79
2022/06/26 03:51:11;;;;;;;;;2.00;2.00;;;;;32.08;27.15;100925.84;4898249;28;45459;-78
2022/06/26 03:53:37;;;;;;;;;2.33;2.33;;;;;32.22;27.40;100927.69;4898315;29;45356;-79
2022/06/26 03:56:03;;;;;;;;;2.00;2.00;;;;;32.14;27.11;100900.75;4898507;28;45382;-79
2022/06/26 03:58:29;;;;;;;;;3.33;3.33;;;;;32.06;26.80;100908.59;4898329;28;45327;-79
2022/06/26 04:00:55;;;;;;;;;4.00;3.00;;;;;32.11;27.71;100942.09;4898630;29;45460;-79
2022/06/26 04:03:20;;;;;;;;;4.00;4.00;;;;;32.04;27.21;100929.78;4898459;28;45840;-79
2022/06/26 04:05:46;;;;;;;;;2.00;2.00;;;;;32.22;26.75;100933.16;4897846;28;45466;-79
2022/06/26 04:08:11;;;;;;;;;2.67;1.67;;;;;32.23;26.83;100923.06;4898865;29;45348;-79
2022/06/26 04:10:37;;;;;;;;;3.67;3.00;;;;;32.41;27.09;100948.34;4899032;28;45230;-79
2022/06/26 04:13:08;;;;;;;;;2.00;1.00;;;;;32.47;26.61;100948.78;4901354;28;45431;-78
2022/06/26 04:15:35;;;;;;;;;2.67;2.67;;;;;32.48;26.52;100958.78;4901592;29;45561;-79
2022/06/26 04:18:01;;;;;;;;;3.67;2.33;;;;;32.56;26.99;100963.75;4916108;28;45514;-79
2022/06/26 04:20:27;;;;;;;;;4.00;2.00;;;;;32.64;26.56;100971.44;4901181;28;45518;-79
2022/06/26 04:22:56;;;;;;;;;3.33;2.67;;;;;32.65;26.92;100967.69;4901160;29;45517;-78
2022/06/26 04:25:22;;;;;;;;;2.67;2.67;;;;;32.48;26.45;100942.31;4901607;28;45208;-79
2022/06/26 04:27:48;;;;;;;;;3.33;2.67;;;;;32.53;26.82;100947.47;4901420;29;45928;-79
2022/06/26 04:30:13;;;;;;;;;6.00;3.00;;;;;32.56;26.70;100946.38;4901472;29;45321;-79
2022/06/26 04:32:39;;;;;;;;;3.67;2.00;;;;;32.61;26.32;100957.91;4900918;29;45338;-79
2022/06/26 04:35:04;;;;;;;;;2.33;2.33;;;;;32.45;26.36;100944.41;4900747;28;45458;-78
2022/06/26 04:37:29;;;;;;;;;3.00;3.00;;;;;32.57;26.41;100975.59;4901303;28;45413;-79
2022/06/26 04:39:55;;;;;;;;;2.00;2.00;;;;;32.58;26.80;100969.13;4901008;29;45392;-79
2022/06/26 04:42:20;;;;;;;;;2.00;2.00;;;;;32.60;26.21;100970.78;4901119;28;47592;-79
2022/06/26 04:44:45;;;;;;;;;3.33;3.33;;;;;32.44;26.41;100970.09;4900897;28;45428;-79
2022/06/26 04:47:11;;;;;;;;;1.67;1.67;;;;;32.40;26.51;100969.41;4901135;28;45513;-79
2022/06/26 04:49:36;;;;;;;;;3.00;3.00;;;;;32.53;26.21;100987.78;4900682;28;45613;-79
2022/06/26 04:52:01;;;;;;;;;3.33;2.00;;;;;32.61;26.25;100985.38;4900937;28;46239;-79
2022/06/26 04:54:27;;;;;;;;;3.00;3.00;;;;;32.73;26.76;100995.53;4900712;29;45643;-79
2022/06/26 04:56:52;;;;;;;;;4.00;3.33;;;;;32.69;26.47;100969.28;4901083;29;45280;-79
2022/06/26 04:59:17;;;;;;;;;4.00;3.00;;;;;32.84;26.32;100989.25;4900731;28;45237;-79
2022/06/26 05:01:43;;;;;;;;;4.00;4.00;;;;;32.69;26.45;100974.78;4900397;28;47877;-81
2022/06/26 05:04:08;;;;;;;;;3.67;3.00;;;;;32.86;26.48;100998.28;4900730;28;45229;-79
2022/06/26 05:06:33;;;;;;;;;6.67;3.33;;;;;32.81;26.96;101001.38;4915365;28;45389;-72
2022/06/26 05:08:59;;;;;;;;;3.33;2.00;;;;;32.56;26.97;100979.31;4900773;28;45168;-72
2022/06/26 05:11:24;;;;;;;;;4.00;2.33;;;;;32.45;27.09;100978.22;4900616;28;45429;-72
2022/06/26 05:13:49;;;;;;;;;2.67;2.67;;;;;32.40;26.88;100985.88;4900644;28;45999;-72
2022/06/26 05:16:15;;;;;;;;;3.00;2.67;;;;;32.30;27.46;100977.41;4900132;28;45351;-72
2022/06/26 05:18:40;;;;;;;;;3.00;2.33;;;;;32.41;27.47;100997.78;4882416;28;45508;-72
2022/06/26 05:21:05;;;;;;;;;4.67;1.67;;;;;32.35;27.00;100995.44;4883442;29;57015;-72
2022/06/26 05:23:31;;;;;;;;;4.67;2.00;;;;;32.26;27.38;101010.69;4898628;28;45376;-72
2022/06/26 05:25:56;;;;;;;;;2.33;2.33;;;;;32.20;26.91;101008.38;4914602;28;45866;-73
2022/06/26 05:28:22;;;;;;;;;4.00;3.00;;;;;32.34;26.75;101000.06;4900641;28;45486;-71
2022/06/26 05:30:47;;;;;;;;;4.00;3.00;;;;;32.39;27.45;101000.63;4914802;28;47381;-71
2022/06/26 05:33:13;;;;;;;;;4.33;3.33;;;;;32.35;27.03;100999.06;4899106;28;45469;-78
2022/06/26 05:35:38;;;;;;;;;2.67;2.67;;;;;32.61;26.80;100997.25;4900107;28;45468;-81
2022/06/26 05:38:03;;;;;;;;;2.33;2.33;;;;;32.82;26.42;101002.25;4896329;28;45463;-81
2022/06/26 05:40:29;;;;;;;;;3.00;3.00;;;;;33.02;26.85;101010.94;4888463;29;45484;-81
2022/06/26 05:42:56;;;;;;;;;3.33;2.00;;;;;33.09;26.45;100998.50;4900136;29;45409;-81
2022/06/26 05:45:22;;;;;;;;;4.00;2.33;;;;;33.09;26.39;100999.38;4899083;29;45491;-80
2022/06/26 05:47:48;;;;;;;;;3.00;3.00;;;;;33.13;26.14;100998.16;4899737;28;45646;-81
2022/06/26 05:50:13;;;;;;;;;2.67;2.33;;;;;33.06;25.87;100979.50;4898825;29;47157;-81
2022/06/26 05:52:39;;;;;;;;;2.67;2.00;;;;;33.18;26.20;100998.72;4899116;28;45403;-81
2022/06/26 05:55:04;;;;;;;;;2.00;2.00;;;;;33.28;25.75;101020.97;4900261;28;45403;-81
2022/06/26 05:57:30;;;;;;;;;3.33;3.33;;;;;33.35;26.17;101004.91;4900195;28;45336;-81
2022/06/26 05:59:55;;;;;;;;;3.33;2.67;;;;;33.37;25.23;101002.03;4899638;28;46378;-80
2022/06/26 06:02:20;;;;;;;;;1.00;1.00;;;;;33.34;26.04;101000.38;4908301;28;48536;-79
2022/06/26 06:04:46;;;;;;;;;2.00;2.00;;;;;33.40;26.06;101007.31;4909007;28;45555;-79
2022/06/26 06:07:11;;;;;;;;;5.00;2.33;;;;;33.52;25.80;101022.91;4909559;28;45372;-80
2022/06/26 06:09:36;;;;;;;;;2.67;2.67;;;;;33.44;25.75;101006.09;4903269;28;45520;-79
2022/06/26 06:12:02;;;;;;;;;4.00;4.00;;;;;33.32;25.78;100991.38;4904780;28;45550;-80
2022/06/26 06:14:27;;;;;;;;;5.33;4.33;;;;;33.50;25.38;101014.78;4908220;28;45614;-80
2022/06/26 06:16:53;;;;;;;;;3.67;2.67;;;;;33.46;25.32;101007.72;4909546;28;45544;-80
2022/06/26 06:19:18;;;;;;;;;3.00;3.00;;;;;33.38;25.55;100999.16;4899416;28;45498;-80
2022/06/26 06:21:43;;;;;;;;;3.25;2.00;;;;;33.42;25.17;101014.44;4899085;28;45439;-79
2022/06/26 06:24:09;;;;;;;;;3.67;3.00;;;;;33.48;25.74;101030.50;4898533;29;45463;-78
2022/06/26 06:26:35;;;;;;;;;4.67;3.67;;;;;33.54;25.20;101014.53;4899764;28;45453;-79
2022/06/26 06:29:00;;;;;;;;;3.00;2.00;;;;;33.51;25.53;101012.88;4899001;28;45490;-79
2022/06/26 06:31:26;;;;;;;;;5.33;2.67;;;;;33.65;25.51;101026.47;4893043;28;45310;-79
2022/06/26 06:33:51;;;;;;;;;2.33;2.33;;;;;33.62;25.20;101031.34;4898164;28;45541;-79
2022/06/26 06:36:17;;;;;;;;;3.67;2.67;;;;;33.61;25.60;101027.72;4905782;28;45454;-79
2022/06/26 06:38:42;;;;;;;;;2.00;2.00;;;;;33.61;25.08;101035.97;4894005;28;46220;-79
2022/06/26 06:41:07;;;;;;;;;3.00;3.00;;;;;33.57;25.37;101025.31;4887889;29;45422;-79
2022/06/26 06:43:33;;;;;;;;;4.67;3.00;;;;;33.67;25.10;101046.53;4913990;28;45521;-80
2022/06/26 06:45:58;;;;;;;;;5.00;5.00;;;;;33.69;25.17;101054.66;4899376;28;45647;-79
2022/06/26 06:48:26;;;;;;;;;4.33;3.00;;;;;33.64;25.66;101048.63;4899157;28;46204;-77
2022/06/26 06:50:52;;;;;;;;;5.33;3.00;;;;;33.78;25.25;101061.38;4913702;28;45748;-79
2022/06/26 06:53:21;;;;;;;;;4.00;3.00;;;;;33.59;25.35;101061.84;4899193;29;46113;-79
2022/06/26 06:55:47;;;;;;;;;2.67;2.67;;;;;33.60;25.39;101058.09;4899119;28;45415;-79
2022/06/26 06:58:12;;;;;;;;;2.33;2.33;;;;;33.64;25.02;101062.38;4898779;29;45675;-79
2022/06/26 07:00:38;;;;;;;;;3.00;3.00;;;;;33.69;25.29;101063.78;4899141;28;45411;-79
2022/06/26 07:03:05;;;;;;;;;4.67;2.33;;;;;33.61;25.50;101048.84;4899237;29;45376;-80
2022/06/26 07:05:30;;;;;;;;;6.00;4.00;;;;;33.40;25.19;101024.66;4895987;28;45358;-80
2022/06/26 07:07:56;;;;;;;;;5.00;4.00;;;;;33.60;25.19;101072.75;4878750;28;47122;-78
2022/06/26 07:10:22;;;;;;;;;2.33;2.33;;;;;33.77;25.30;101078.88;4885799;28;45466;-79
2022/06/26 07:12:52;;;;;;;;;4.00;4.00;;;;;33.59;25.29;101042.59;4884316;29;45539;-77
2022/06/26 07:15:18;;;;;;;;;5.00;4.67;;;;;33.78;25.33;101070.50;4875045;29;45576;-78
2022/06/26 07:17:43;;;;;;;;;3.33;3.00;;;;;33.73;25.47;101075.47;4889050;28;46147;-78
2022/06/26 07:20:09;;;;;;;;;5.00;4.00;;;;;33.62;25.25;101075.38;4882062;29;45466;-78
2022/06/26 07:22:34;;;;;;;;;3.33;2.33;;;;;33.57;25.58;101070.19;4881561;29;45472;-79
2022/06/26 07:25:00;;;;;;;;;3.33;3.33;;;;;33.55;25.17;101066.69;4902811;28;45580;-78
2022/06/26 07:27:25;;;;;;;;;4.67;2.00;;;;;33.87;25.14;101096.50;4883086;28;45954;-78
2022/06/26 07:29:50;;;;;;;;;3.00;3.00;;;;;34.08;24.81;101096.75;4879880;28;45414;-79
2022/06/26 07:32:16;;;;;;;;;3.75;3.00;;;;;34.13;24.51;101082.63;4889566;28;45588;-77
2022/06/26 07:34:41;;;;;;;;;3.00;3.00;;;;;34.00;24.75;101094.56;4884935;28;45598;-76
2022/06/26 07:37:06;;;;;;;;;6.00;4.00;;;;;33.91;24.62;101094.38;4883786;29;45398;-79
2022/06/26 07:39:32;;;;;;;;;4.00;4.00;;;;;33.85;25.28;101084.69;4901185;28;45557;-78
2022/06/26 07:41:57;;;;;;;;;2.00;1.00;;;;;34.04;24.88;101084.22;4887918;29;45633;-77
2022/06/26 07:44:23;;;;;;;;;4.00;2.33;;;;;34.17;24.83;101087.78;4884089;29;45638;-77
2022/06/26 07:46:48;;;;;;;;;5.33;3.33;;;;;34.16;24.99;101102.56;4898831;28;46915;-77
2022/06/26 07:49:13;;;;;;;;;2.67;2.67;;;;;34.03;24.98;101098.97;4902160;28;45466;-79
2022/06/26 07:51:39;;;;;;;;;3.67;3.00;;;;;34.15;25.09;101117.31;4910387;28;45438;-79
2022/06/26 07:54:05;;;;;;;;;2.00;2.00;;;;;34.17;24.28;101108.94;4908909;28;45474;-80
2022/06/26 07:56:31;;;;;;;;;4.67;2.00;;;;;34.17;24.55;101093.28;4887643;29;47190;-80
2022/06/26 07:58:57;;;;;;;;;3.00;3.00;;;;;34.42;24.71;101124.53;4900045;28;45530;-79
2022/06/26 08:01:22;;;;;;;;;4.00;2.00;;;;;34.38;24.46;101100.97;4885139;29;45687;-78
2022/06/26 08:03:48;;;;;;;;;3.00;3.00;;;;;34.46;24.24;101115.03;4887796;29;45578;-79
2022/06/26 08:06:13;;;;;;;;;7.00;3.33;;;;;34.24;23.94;101068.06;4887073;29;45412;-80
2022/06/26 08:08:39;;;;;;;;;2.33;2.33;;;;;34.43;24.25;101112.53;4887949;29;45454;-80
2022/06/26 08:11:05;;;;;;;;;5.67;3.00;;;;;34.31;24.11;101088.66;4888706;29;45467;-79
2022/06/26 08:13:30;;;;;;;;;3.33;3.00;;;;;34.49;24.33;101089.13;4887922;29;45527;-80
2022/06/26 08:15:56;;;;;;;;;2.00;2.00;;;;;34.77;23.92;101100.72;4901543;28;46933;-79
2022/06/26 08:18:21;;;;;;;;;8.00;5.00;;;;;34.83;23.77;101108.56;4899027;28;45474;-73
2022/06/26 08:20:47;;;;;;;;;3.67;2.00;;;;;34.73;23.43;101118.50;4901721;29;45539;-73
2022/06/26 08:23:13;;;;;;;;;3.33;3.33;;;;;34.76;23.34;101107.28;4900778;28;45538;-74
2022/06/26 08:25:38;;;;;;;;;5.00;2.67;;;;;34.80;22.88;101108.81;4886305;28;46493;-74
2022/06/26 08:28:04;;;;;;;;;6.00;3.33;;;;;34.93;23.33;101101.34;4894598;29;45483;-72
2022/06/26 08:30:29;;;;;;;;;3.67;2.67;;;;;35.00;23.52;101099.84;4888411;29;45411;-72
2022/06/26 08:32:58;;;;;;;;;3.33;3.00;;;;;35.13;23.29;101110.78;4901296;28;45348;-70
2022/06/26 08:35:25;;;;;;;;;4.67;4.00;;;;;35.28;22.77;101102.28;4893939;28;45491;-70
2022/06/26 08:37:51;;;;;;;;;4.00;3.00;;;;;35.22;22.79;101103.66;4900499;28;45379;-72
2022/06/26 08:40:17;;;;;;;;;3.00;3.00;;;;;35.21;22.70;101093.63;4894633;28;45388;-70
2022/06/26 08:42:43;;;;;;;;;4.00;3.00;;;;;35.29;22.92;101093.00;4900154;28;45383;-84
2022/06/26 08:45:09;;;;;;;;;3.00;3.00;;;;;35.32;22.20;101092.81;4890137;28;45520;-75
2022/06/26 08:47:39;;;;;;;;;2.33;2.33;;;;;35.29;22.17;101096.66;4896199;28;45324;-77
2022/06/26 08:50:05;;;;;;;;;4.00;4.00;;;;;35.36;22.30;101094.31;4893142;29;45389;-75
2022/06/26 08:52:31;;;;;;;;;4.00;4.00;;;;;35.46;21.62;101077.88;4899416;29;45303;-76
2022/06/26 08:54:57;;;;;;;;;6.00;3.00;;;;;35.60;21.51;101093.28;4898073;28;45422;-78
2022/06/26 08:57:23;;;;;;;;;3.00;3.00;;;;;35.55;21.48;101089.03;4900472;28;45785;-76
2022/06/26 08:59:48;;;;;;;;;2.33;2.33;;;;;35.62;21.42;101094.06;4901326;28;46251;-77
2022/06/26 09:02:14;;;;;;;;;3.67;1.67;;;;;35.59;21.48;101086.03;4900091;29;45371;-78
2022/06/26 09:04:39;;;;;;;;;2.00;2.00;;;;;35.61;21.56;101072.97;4900494;28;45401;-77
2022/06/26 09:07:08;;;;;;;;;4.67;2.00;;;;;35.71;21.76;101088.66;4898777;28;45360;-78
2022/06/26 09:09:37;;;;;;;;;3.00;2.33;;;;;35.71;21.22;101082.25;4912967;28;45421;-78
2022/06/26 09:12:04;;;;;;;;;4.00;3.00;;;;;35.58;21.72;101081.53;4898566;29;45476;-78
2022/06/26 09:14:30;;;;;;;;;3.67;3.67;;;;;35.50;21.33;101077.50;4898367;29;46222;-78
2022/06/26 09:16:56;;;;;;;;;2.25;2.25;;;;;35.46;21.03;101061.31;4898801;29;45519;-78
2022/06/26 09:19:30;;;;;;;;;2.67;2.00;;;;;35.46;21.11;101075.09;4898656;28;45506;-78
2022/06/26 09:22:07;;;;;;;;;3.67;3.00;;;;;35.49;21.40;101070.22;4899916;28;45504;-78
2022/06/26 09:24:36;;;;;;;;;3.67;3.00;;;;;35.51;20.69;101070.09;4899588;29;46408;-78
2022/06/26 09:27:06;;;;;;;;;2.67;2.67;;;;;35.37;21.07;101073.97;4900260;29;45474;-78
2022/06/26 09:29:31;;;;;;;;;3.75;2.75;;;;;35.37;21.08;101071.22;4900372;28;45339;-77
2022/06/26 09:32:09;;;;;;;;;4.00;3.00;;;;;35.25;21.34;101070.31;4900272;29;45572;-78
2022/06/26 09:34:35;;;;;;;;;3.00;3.00;;;;;35.24;21.01;101074.06;4899771;29;46371;-77
2022/06/26 09:37:04;;;;;;;;;3.00;3.00;;;;;35.15;21.06;101055.53;4900286;29;45391;-78
2022/06/26 09:39:30;;;;;;;;;3.67;3.00;;;;;35.26;21.05;101071.19;4914429;28;45569;-78
2022/06/26 09:41:56;;;;;;;;;2.00;2.00;;;;;35.32;20.73;101065.22;4900165;29;45409;-78
2022/06/26 09:44:22;;;;;;;;;3.00;3.00;;;;;35.55;20.59;101072.47;4899944;29;45491;-78
2022/06/26 09:46:48;;;;;;;;;6.00;3.33;;;;;35.76;20.69;101074.47;4900249;29;45432;-76
2022/06/26 09:49:16;;;;;;;;;2.33;2.33;;;;;35.79;20.26;101071.44;4900214;29;45431;-77
2022/06/26 09:51:42;;;;;;;;;2.00;2.00;;;;;35.82;19.74;101068.47;4914592;28;45315;-78
2022/06/26 09:54:08;;;;;;;;;1.67;1.67;;;;;35.93;19.57;101072.22;4914065;28;48085;-77
2022/06/26 09:56:34;;;;;;;;;3.00;3.00;;;;;35.91;19.54;101052.13;4899794;29;45394;-78
2022/06/26 09:59:00;;;;;;;;;2.00;2.00;;;;;35.92;19.86;101062.19;4900024;28;45402;-77
2022/06/26 10:07:00;;;;;;;;;3.00;1.33;;;;;35.84;19.59;101077.50;4899760;29;45439;-78
2022/06/26 10:09:27;;;;;;;;;4.00;3.00;;;;;35.78;19.97;101072.47;4899136;28;45353;-78
2022/06/26 10:11:56;;;;;;;;;3.00;2.00;;;;;35.65;20.09;101071.72;4899680;28;45372;-76
2022/06/26 10:14:30;;;;;;;;;2.33;2.33;;;;;35.50;19.67;101080.28;4899455;28;45518;-75
2022/06/26 10:17:10;;;;;;;;;2.25;2.25;;;;;35.53;19.63;101077.25;4899667;29;45376;-76
2022/06/26 10:19:52;;;;;;;;;2.25;2.00;;;;;35.51;19.79;101071.00;4898359;29;45433;-76
2022/06/26 10:22:18;;;;;;;;;2.00;2.00;;;;;35.55;19.99;101066.94;4896177;28;45510;-77
2022/06/26 10:25:02;;;;;;;;;1.50;1.50;;;;;35.52;20.19;101067.22;4899278;28;45228;-77
2022/06/26 10:27:30;;;;;;;;;1.33;1.33;;;;;35.49;19.74;101063.84;4898693;28;45618;-79
2022/06/26 10:30:16;;;;;;;;;2.50;2.50;;;;;35.60;19.82;101062.94;4899466;28;45447;-78
2022/06/26 10:32:45;;;;;;;;;4.00;1.50;;;;;35.56;19.98;101056.81;4899606;28;45576;-77
2022/06/26 10:35:12;;;;;;;;;3.50;3.50;;;;;35.67;19.53;101078.00;4897862;28;45474;-77
2022/06/26 10:37:48;;;;;;;;;1.75;1.75;;;;;35.68;19.55;101054.91;4898466;28;45424;-77
2022/06/26 10:43:11;;;;;;;;;3.00;3.00;;;;;35.76;19.74;101063.44;4880533;29;45716;-77
2022/06/26 10:45:38;;;;;;;;;3.00;1.50;;;;;35.98;19.01;101081.00;4880659;29;46998;-83
2022/06/26 10:48:09;;;;;;;;;3.67;2.00;;;;;36.14;19.35;101066.78;4880898;29;45157;-81
2022/06/26 10:50:41;;;;;;;;;4.00;3.00;;;;;36.22;19.17;101067.03;4880414;29;45441;-81
2022/06/26 10:53:23;;;;;;;;;3.00;3.00;;;;;36.35;19.51;101075.16;4880841;29;45430;-82
2022/06/26 10:55:54;;;;;;;;;3.33;2.00;;;;;36.23;18.85;101052.19;4880516;29;46722;-80
2022/06/26 10:58:24;;;;;;;;;5.00;4.00;;;;;36.24;19.11;101040.13;4892136;29;45491;-81
2022/06/26 11:00:52;;;;;;;;;4.67;4.67;;;;;36.50;18.55;101068.31;4910269;28;45291;-79
2022/06/26 11:03:18;;;;;;;;;4.00;3.00;;;;;36.40;18.89;101059.06;4882217;28;45363;-78
2022/06/26 11:06:06;;;;;;;;;4.00;3.00;;;;;36.35;18.65;101073.25;4880471;28;46275;-77
2022/06/26 11:08:33;;;;;;;;;1.00;1.00;;;;;36.34;17.81;101067.88;4894921;28;45415;-78
2022/06/26 11:11:17;;;;;;;;;1.25;1.25;;;;;36.29;18.01;101051.66;4880724;29;45538;-77
2022/06/26 11:13:53;;;;;;;;;1.00;1.00;;;;;36.35;17.85;101064.97;4891366;29;45491;-77
2022/06/26 11:16:46;;;;;;;;;1.00;1.00;;;;;36.29;17.85;101057.19;4888954;28;45500;-78
2022/06/26 11:19:26;;;;;;;;;1.75;1.75;;;;;36.02;17.68;101046.59;4885711;29;45556;-77
2022/06/26 11:22:03;;;;;;;;;3.00;2.00;;;;;35.97;18.07;101048.88;4887456;29;45896;-77
2022/06/26 11:24:29;;;;;;;;;1.25;1.25;;;;;35.92;18.14;101045.63;4886409;29;45663;-77
2022/06/26 11:26:55;;;;;;;;;5.00;2.00;;;;;35.72;17.59;101034.34;4892921;29;46388;-77
2022/06/26 11:29:20;;;;;;;;;2.00;2.00;;;;;35.72;18.26;101018.66;4895445;29;45498;-78
2022/06/26 11:31:50;;;;;;;;;2.00;2.00;;;;;35.97;17.82;101041.47;4892880;28;45926;-76
2022/06/26 11:34:15;;;;;;;;;1.00;1.00;;;;;35.97;18.13;101037.84;4899177;28;45515;-77